Time;durP1;ratioP1;P1;durP2;ratioP2;P2;SDS_P1;SDS_P2;PMS_P1;PMS_P2;Temp;Humidity;BMP_temperature;BMP_pressure;BME280_temperature;BME280_humidity;BME280_pressure;Samples;Min_cycle;Max_cycle;Signal;HPM_P1;HPM_P2
2022/08/10 00:02:39;;;;;;;2.20;2.00;;;;;;;;;;4937933;29;20283;-90
2022/08/10 00:05:08;;;;;;;2.38;2.17;;;;;;;;;;4938245;29;20237;-91
2022/08/10 00:07:35;;;;;;;2.28;2.13;;;;;;;;;;4933955;29;20649;-91
2022/08/10 00:10:03;;;;;;;2.00;1.90;;;;;;;;;;4937827;29;20233;-91
2022/08/10 00:12:30;;;;;;;2.22;1.95;;;;;;;;;;4937773;29;20209;-91
2022/08/10 00:14:58;;;;;;;3.28;2.05;;;;;;;;;;4937774;29;20209;-91
2022/08/10 00:17:28;;;;;;;2.45;2.00;;;;;;;;;;4937261;29;20214;-91
2022/08/10 00:19:58;;;;;;;2.20;2.00;;;;;;;;;;4938159;29;20208;-91
2022/08/10 00:22:27;;;;;;;1.95;1.80;;;;;;;;;;4937914;29;20209;-91
2022/08/10 00:24:56;;;;;;;2.30;2.10;;;;;;;;;;4937866;29;20244;-91
2022/08/10 00:27:24;;;;;;;2.00;1.80;;;;;;;;;;4937181;29;20205;-91
2022/08/10 00:29:51;;;;;;;2.72;1.98;;;;;;;;;;4936308;29;20221;-92
2022/08/10 00:32:22;;;;;;;2.33;2.00;;;;;;;;;;4937640;29;20213;-90
2022/08/10 00:34:49;;;;;;;2.25;2.05;;;;;;;;;;4937076;29;20213;-91
2022/08/10 00:37:17;;;;;;;3.05;2.22;;;;;;;;;;4937338;29;20276;-91
2022/08/10 00:39:47;;;;;;;2.15;1.60;;;;;;;;;;4937272;29;20205;-91
2022/08/10 00:42:16;;;;;;;1.92;1.70;;;;;;;;;;4937509;29;20241;-91
2022/08/10 00:44:44;;;;;;;2.40;1.75;;;;;;;;;;4937183;29;20276;-91
2022/08/10 00:47:12;;;;;;;1.92;1.83;;;;;;;;;;4937308;29;20265;-92
2022/08/10 00:49:39;;;;;;;1.98;1.88;;;;;;;;;;4935868;29;20233;-91
2022/08/10 00:52:07;;;;;;;2.35;2.15;;;;;;;;;;4937398;29;20264;-91
2022/08/10 00:54:36;;;;;;;1.92;1.80;;;;;;;;;;4936850;29;20209;-90
2022/08/10 00:57:06;;;;;;;2.20;1.80;;;;;;;;;;4937077;29;20304;-89
2022/08/10 00:59:34;;;;;;;2.30;2.10;;;;;;;;;;4936752;29;20205;-91
2022/08/10 01:02:02;;;;;;;1.85;1.75;;;;;;;;;;4937300;29;20261;-91
2022/08/10 01:04:29;;;;;;;2.30;2.10;;;;;;;;;;4936861;29;20337;-91
2022/08/10 01:07:04;;;;;;;2.35;1.90;;;;;;;;;;4936679;29;20272;-90
2022/08/10 01:09:35;;;;;;;1.70;1.60;;;;;;;;;;4936568;29;20248;-91
2022/08/10 01:12:08;;;;;;;1.98;1.77;;;;;;;;;;4936764;29;20217;-91
2022/08/10 01:14:38;;;;;;;1.67;1.58;;;;;;;;;;4936854;29;20205;-91
2022/08/10 01:17:10;;;;;;;2.25;2.03;;;;;;;;;;4936441;29;20225;-90
2022/08/10 01:19:53;;;;;;;2.17;1.98;;;;;;;;;;4936365;29;20264;-90
2022/08/10 01:22:27;;;;;;;1.85;1.75;;;;;;;;;;4936529;29;20212;-91
2022/08/10 01:25:10;;;;;;;2.13;1.95;;;;;;;;;;4936959;29;20217;-91
2022/08/10 01:27:41;;;;;;;2.20;1.77;;;;;;;;;;4936251;29;20347;-91
2022/08/10 01:30:10;;;;;;;1.90;1.80;;;;;;;;;;4936495;29;20297;-91
2022/08/10 01:32:41;;;;;;;2.20;2.00;;;;;;;;;;4936196;29;20296;-91
2022/08/10 01:35:14;;;;;;;2.40;2.20;;;;;;;;;;4936572;29;20225;-91
2022/08/10 01:37:46;;;;;;;2.20;2.00;;;;;;;;;;4935469;29;20209;-91
2022/08/10 01:40:21;;;;;;;2.40;2.20;;;;;;;;;;4936580;29;20220;-90
2022/08/10 01:42:49;;;;;;;4.40;1.90;;;;;;;;;;4931248;29;20212;-91
2022/08/10 01:45:19;;;;;;;2.25;2.05;;;;;;;;;;4935983;29;20225;-91
2022/08/10 01:50:35;;;;;;;2.15;2.05;;;;;;;;;;4935629;29;20267;-91
2022/08/10 01:53:03;;;;;;;2.20;2.10;;;;;;;;;;4942918;29;20620;-91
2022/08/10 01:55:31;;;;;;;2.00;1.90;;;;;;;;;;4936229;29;20252;-91
2022/08/10 01:58:01;;;;;;;2.20;2.00;;;;;;;;;;4936107;29;20240;-91
2022/08/10 02:00:31;;;;;;;2.20;2.00;;;;;;;;;;4935630;29;20225;-91
2022/08/10 02:03:05;;;;;;;5.53;2.20;;;;;;;;;;4936563;29;20256;-90
2022/08/10 02:05:33;;;;;;;2.20;2.00;;;;;;;;;;4935776;29;20224;-91
2022/08/10 02:08:01;;;;;;;2.10;1.90;;;;;;;;;;4935718;29;20213;-91
2022/08/10 02:10:31;;;;;;;2.45;2.22;;;;;;;;;;4935425;29;20336;-90
2022/08/10 02:13:00;;;;;;;2.38;2.15;;;;;;;;;;4935883;29;20209;-90
2022/08/10 02:15:29;;;;;;;2.53;1.90;;;;;;;;;;4935300;29;20248;-91
2022/08/10 02:18:00;;;;;;;2.20;2.00;;;;;;;;;;4935455;29;20260;-90
2022/08/10 02:20:29;;;;;;;2.38;2.17;;;;;;;;;;4935467;29;20727;-90
2022/08/10 02:22:59;;;;;;;2.58;2.20;;;;;;;;;;4929811;29;20235;-91
2022/08/10 02:25:26;;;;;;;2.30;2.10;;;;;;;;;;4935311;29;20236;-92
2022/08/10 02:27:54;;;;;;;2.33;2.05;;;;;;;;;;4929373;29;20264;-91
2022/08/10 02:30:22;;;;;;;2.20;2.00;;;;;;;;;;4929151;29;20674;-91
2022/08/10 02:32:50;;;;;;;3.00;2.55;;;;;;;;;;4935216;29;20296;-91
2022/08/10 02:35:19;;;;;;;2.78;2.22;;;;;;;;;;4929137;29;20233;-91
2022/08/10 02:37:47;;;;;;;2.38;2.17;;;;;;;;;;4934131;29;20252;-91
2022/08/10 02:40:15;;;;;;;2.42;2.22;;;;;;;;;;4935298;29;20250;-91
2022/08/10 02:42:44;;;;;;;2.90;2.30;;;;;;;;;;4934825;29;20197;-91
2022/08/10 02:45:14;;;;;;;2.10;2.00;;;;;;;;;;4935030;29;20668;-90
2022/08/10 02:47:43;;;;;;;2.30;2.10;;;;;;;;;;4934763;29;20201;-91
2022/08/10 02:50:14;;;;;;;2.30;2.10;;;;;;;;;;4935422;29;20264;-91
2022/08/10 02:52:45;;;;;;;2.10;2.00;;;;;;;;;;4934771;29;20209;-91
2022/08/10 02:55:15;;;;;;;2.20;2.00;;;;;;;;;;4935084;29;20233;-91
2022/08/10 02:57:47;;;;;;;2.35;2.08;;;;;;;;;;4934813;29;20216;-90
2022/08/10 03:00:16;;;;;;;2.42;2.00;;;;;;;;;;4935292;29;20213;-91
2022/08/10 03:02:46;;;;;;;2.20;2.00;;;;;;;;;;4934993;29;20206;-90
2022/08/10 03:05:14;;;;;;;2.90;2.50;;;;;;;;;;4935380;29;20233;-91
2022/08/10 03:07:44;;;;;;;2.60;2.40;;;;;;;;;;4934252;29;20677;-91
2022/08/10 03:10:14;;;;;;;3.53;2.05;;;;;;;;;;4935448;29;20232;-89
2022/08/10 03:12:42;;;;;;;2.53;2.03;;;;;;;;;;4934130;29;20229;-91
2022/08/10 03:15:12;;;;;;;2.50;2.00;;;;;;;;;;4934724;29;20319;-91
2022/08/10 03:17:40;;;;;;;2.25;2.05;;;;;;;;;;4934412;29;20236;-91
2022/08/10 03:20:08;;;;;;;2.20;2.00;;;;;;;;;;4934521;29;20205;-91
2022/08/10 03:22:37;;;;;;;3.60;2.35;;;;;;;;;;4934512;29;20260;-90
2022/08/10 03:25:06;;;;;;;2.30;2.10;;;;;;;;;;4934934;29;20209;-90
2022/08/10 03:27:34;;;;;;;3.30;2.40;;;;;;;;;;4934720;29;20253;-92
2022/08/10 03:30:01;;;;;;;2.10;2.00;;;;;;;;;;4934302;29;20237;-90
2022/08/10 03:32:32;;;;;;;2.15;1.95;;;;;;;;;;4934718;29;20233;-91
2022/08/10 03:35:07;;;;;;;2.83;2.30;;;;;;;;;;4934243;29;20672;-91
2022/08/10 03:37:34;;;;;;;2.40;2.20;;;;;;;;;;4938856;29;20212;-90
2022/08/10 03:40:05;;;;;;;2.30;2.10;;;;;;;;;;4936522;29;20277;-91
2022/08/10 03:42:34;;;;;;;2.97;2.10;;;;;;;;;;4934601;29;20213;-92
2022/08/10 03:45:03;;;;;;;1.92;1.83;;;;;;;;;;4934136;29;20213;-91
2022/08/10 03:47:38;;;;;;;2.50;2.30;;;;;;;;;;4934470;29;20213;-91
2022/08/10 03:50:06;;;;;;;3.78;2.30;;;;;;;;;;4934618;29;20236;-90
2022/08/10 03:52:36;;;;;;;2.60;2.20;;;;;;;;;;4934589;29;20296;-90
2022/08/10 03:55:08;;;;;;;2.38;2.17;;;;;;;;;;4934222;29;20209;-90
2022/08/10 03:57:36;;;;;;;3.65;2.30;;;;;;;;;;4929660;29;20300;-91
2022/08/10 04:00:04;;;;;;;2.30;2.10;;;;;;;;;;4934364;29;20241;-90
2022/08/10 04:02:32;;;;;;;3.88;2.35;;;;;;;;;;4934465;29;20213;-90
2022/08/10 04:05:02;;;;;;;2.78;2.45;;;;;;;;;;4934568;29;20213;-90
2022/08/10 04:07:30;;;;;;;2.95;2.22;;;;;;;;;;4934183;29;20213;-90
2022/08/10 04:09:57;;;;;;;3.40;2.60;;;;;;;;;;4934844;29;20260;-91
2022/08/10 04:12:24;;;;;;;2.40;2.20;;;;;;;;;;4933908;29;20212;-90
2022/08/10 04:14:53;;;;;;;2.38;2.17;;;;;;;;;;4934369;29;20343;-90
2022/08/10 04:17:22;;;;;;;5.13;2.45;;;;;;;;;;4934098;29;20261;-88
2022/08/10 04:19:51;;;;;;;2.30;2.10;;;;;;;;;;4935075;29;20240;-91
2022/08/10 04:22:19;;;;;;;2.38;2.15;;;;;;;;;;4934363;29;20303;-90
2022/08/10 04:24:47;;;;;;;2.20;2.00;;;;;;;;;;4937061;29;20501;-90
2022/08/10 04:27:15;;;;;;;3.47;2.03;;;;;;;;;;4937412;29;20303;-91
2022/08/10 04:29:42;;;;;;;2.17;2.03;;;;;;;;;;4937604;29;20246;-90
2022/08/10 04:32:11;;;;;;;3.97;2.70;;;;;;;;;;4937521;29;20246;-90
2022/08/10 04:34:41;;;;;;;2.28;2.00;;;;;;;;;;4937799;29;20205;-89
2022/08/10 04:37:16;;;;;;;2.97;2.20;;;;;;;;;;4967692;23;20283;-90
2022/08/10 04:45:44;;;;;;;7.30;2.60;;;;;;;;;;4956244;29;20255;-94
2022/08/10 04:48:25;;;;;;;5.18;2.67;;;;;;;;;;4958128;29;20191;-94
2022/08/10 04:51:06;;;;;;;10.63;3.95;;;;;;;;;;4956227;29;20227;-92
2022/08/10 04:54:05;;;;;;;16.58;4.25;;;;;;;;;;4949996;28;20200;-92
2022/08/10 05:00:14;;;;;;;12.00;3.45;;;;;;;;;;4814626;29;20211;-91
2022/08/10 05:02:41;;;;;;;13.20;3.50;;;;;;;;;;4869608;29;20224;-91
2022/08/10 05:05:11;;;;;;;10.13;3.45;;;;;;;;;;4951812;29;20232;-90
2022/08/10 05:07:38;;;;;;;5.53;2.72;;;;;;;;;;4962359;28;20228;-91
2022/08/10 05:10:06;;;;;;;6.97;3.05;;;;;;;;;;4958040;28;20216;-92
2022/08/10 05:12:36;;;;;;;5.47;2.85;;;;;;;;;;4950889;28;20209;-90
2022/08/10 05:15:06;;;;;;;3.92;2.88;;;;;;;;;;4956246;29;20203;-91
2022/08/10 05:17:37;;;;;;;6.32;2.55;;;;;;;;;;4949880;29;20213;-92
2022/08/10 05:20:04;;;;;;;3.47;2.65;;;;;;;;;;4952065;29;20681;-91
2022/08/10 05:22:33;;;;;;;10.32;3.15;;;;;;;;;;4948135;29;20216;-88
2022/08/10 05:25:01;;;;;;;5.07;3.05;;;;;;;;;;4943986;29;20289;-88
2022/08/10 05:27:29;;;;;;;8.27;3.42;;;;;;;;;;4945882;29;20232;-88
2022/08/10 05:29:56;;;;;;;6.15;3.38;;;;;;;;;;4956226;28;20271;-89
2022/08/10 05:32:24;;;;;;;6.95;3.33;;;;;;;;;;4956459;29;20221;-89
2022/08/10 05:34:51;;;;;;;7.28;3.25;;;;;;;;;;4949069;29;20300;-88
2022/08/10 05:37:20;;;;;;;4.45;3.00;;;;;;;;;;4997314;23;20252;-88
2022/08/10 05:39:49;;;;;;;4.32;3.20;;;;;;;;;;4955632;28;20617;-89
2022/08/10 05:42:19;;;;;;;9.45;4.15;;;;;;;;;;4944007;29;20205;-89
2022/08/10 05:44:48;;;;;;;5.28;3.03;;;;;;;;;;4947244;29;20208;-87
2022/08/10 05:47:16;;;;;;;6.50;3.42;;;;;;;;;;4946980;28;20236;-88
2022/08/10 05:49:44;;;;;;;4.53;3.25;;;;;;;;;;4936883;29;20217;-88
2022/08/10 05:52:11;;;;;;;6.28;3.42;;;;;;;;;;4942563;29;20632;-89
2022/08/10 05:54:38;;;;;;;4.70;3.00;;;;;;;;;;4939096;29;20217;-88
2022/08/10 05:57:09;;;;;;;4.57;2.85;;;;;;;;;;4941918;29;20233;-88
2022/08/10 05:59:38;;;;;;;7.72;2.70;;;;;;;;;;4941776;29;20222;-88
2022/08/10 06:02:09;;;;;;;4.75;2.80;;;;;;;;;;4936912;29;20212;-89
2022/08/10 06:04:38;;;;;;;4.65;3.10;;;;;;;;;;4937703;29;20294;-88
2022/08/10 06:07:14;;;;;;;3.95;2.90;;;;;;;;;;4943269;28;20224;-89
2022/08/10 06:09:42;;;;;;;3.28;2.80;;;;;;;;;;4940654;29;20215;-88
2022/08/10 06:12:14;;;;;;;4.22;2.72;;;;;;;;;;4939737;29;20279;-90
2022/08/10 06:15:00;;;;;;;4.88;2.55;;;;;;;;;;4936922;29;20201;-89
2022/08/10 06:17:51;;;;;;;2.90;2.70;;;;;;;;;;4937091;29;20236;-90
2022/08/10 06:25:57;;;;;;;3.67;3.00;;;;;;;;;;4932532;29;20225;-89
2022/08/10 06:28:29;;;;;;;3.33;2.65;;;;;;;;;;4943403;29;20209;-90
2022/08/10 06:30:58;;;;;;;4.07;3.03;;;;;;;;;;4935758;29;20232;-89
2022/08/10 06:33:26;;;;;;;5.20;3.25;;;;;;;;;;4935706;29;20235;-88
2022/08/10 06:35:55;;;;;;;4.78;2.67;;;;;;;;;;4935857;28;20228;-89
2022/08/10 06:38:24;;;;;;;4.82;2.40;;;;;;;;;;4934724;29;20225;-89
2022/08/10 06:40:54;;;;;;;5.25;2.70;;;;;;;;;;4935353;29;20221;-90
2022/08/10 06:43:22;;;;;;;3.65;2.30;;;;;;;;;;4935073;29;20212;-89
2022/08/10 06:45:53;;;;;;;3.10;2.42;;;;;;;;;;4940127;29;20287;-89
2022/08/10 06:48:25;;;;;;;4.60;2.42;;;;;;;;;;4941906;29;20240;-90
2022/08/10 06:50:55;;;;;;;3.22;1.98;;;;;;;;;;4937051;29;20241;-89
2022/08/10 06:53:23;;;;;;;3.17;2.38;;;;;;;;;;4937267;29;20212;-89
2022/08/10 06:55:56;;;;;;;2.78;1.90;;;;;;;;;;4937103;29;20229;-88
2022/08/10 06:58:25;;;;;;;3.13;1.98;;;;;;;;;;4935585;29;20208;-88
2022/08/10 07:00:54;;;;;;;3.92;2.42;;;;;;;;;;4935810;29;20257;-88
2022/08/10 07:03:30;;;;;;;2.30;2.10;;;;;;;;;;4935030;29;20213;-87
2022/08/10 07:05:59;;;;;;;2.20;2.00;;;;;;;;;;4935492;29;20254;-88
2022/08/10 07:08:38;;;;;;;2.30;2.10;;;;;;;;;;4934959;29;20201;-86
2022/08/10 07:11:06;;;;;;;3.33;2.10;;;;;;;;;;4935181;29;20349;-88
2022/08/10 07:13:43;;;;;;;2.13;1.92;;;;;;;;;;4934624;29;20201;-87
2022/08/10 07:16:13;;;;;;;2.88;2.03;;;;;;;;;;4934903;29;20312;-87
2022/08/10 07:19:06;;;;;;;2.42;2.22;;;;;;;;;;4934706;29;20292;-88
2022/08/10 07:21:38;;;;;;;2.08;1.88;;;;;;;;;;4932834;29;20205;-89
2022/08/10 07:24:09;;;;;;;2.50;2.00;;;;;;;;;;4937330;28;20213;-90
2022/08/10 07:26:38;;;;;;;2.50;2.17;;;;;;;;;;4935336;29;20229;-89
2022/08/10 07:29:08;;;;;;;2.75;1.92;;;;;;;;;;4934962;29;20201;-89
2022/08/10 07:31:43;;;;;;;3.28;2.10;;;;;;;;;;4935526;29;20255;-90
2022/08/10 07:34:15;;;;;;;2.25;1.90;;;;;;;;;;4935444;29;20211;-90
2022/08/10 07:36:45;;;;;;;2.00;1.80;;;;;;;;;;4935618;29;20268;-88
2022/08/10 07:39:17;;;;;;;3.35;2.17;;;;;;;;;;4942196;29;20248;-88
2022/08/10 07:41:45;;;;;;;2.78;2.00;;;;;;;;;;4934715;29;20205;-88
2022/08/10 07:44:18;;;;;;;2.80;1.90;;;;;;;;;;4935158;29;20292;-88
2022/08/10 07:47:02;;;;;;;3.35;1.92;;;;;;;;;;4935329;29;20268;-90
2022/08/10 07:49:35;;;;;;;2.35;2.15;;;;;;;;;;4935473;29;20291;-90
2022/08/10 07:52:10;;;;;;;1.90;1.80;;;;;;;;;;4935009;29;20217;-89
2022/08/10 07:54:41;;;;;;;3.50;1.88;;;;;;;;;;4935946;29;20228;-88
2022/08/10 07:57:11;;;;;;;3.13;1.90;;;;;;;;;;4933893;29;20225;-87
2022/08/10 07:59:40;;;;;;;2.85;1.77;;;;;;;;;;4938332;29;20268;-87
2022/08/10 08:02:18;;;;;;;2.25;1.90;;;;;;;;;;4936250;29;20759;-90
2022/08/10 08:05:08;;;;;;;3.60;2.00;;;;;;;;;;4935716;29;20694;-90
2022/08/10 08:07:37;;;;;;;2.78;1.80;;;;;;;;;;4938552;29;20269;-89
2022/08/10 08:10:16;;;;;;;3.80;1.98;;;;;;;;;;4940909;29;20207;-90
2022/08/10 08:12:51;;;;;;;2.35;1.85;;;;;;;;;;4941675;29;20284;-89
2022/08/10 08:15:21;;;;;;;2.47;1.75;;;;;;;;;;4944038;29;20208;-89
2022/08/10 08:17:49;;;;;;;2.22;1.88;;;;;;;;;;4939122;29;20206;-89
2022/08/10 08:20:21;;;;;;;3.22;2.03;;;;;;;;;;4939185;29;20205;-89
2022/08/10 08:23:06;;;;;;;1.98;1.88;;;;;;;;;;4940125;29;20676;-89
2022/08/10 08:25:35;;;;;;;2.10;2.00;;;;;;;;;;4939022;29;20229;-89
2022/08/10 08:28:04;;;;;;;2.10;1.77;;;;;;;;;;4937495;29;20233;-88
2022/08/10 08:30:32;;;;;;;3.40;2.10;;;;;;;;;;4938359;29;20213;-88
2022/08/10 08:33:11;;;;;;;1.80;1.70;;;;;;;;;;4937956;29;20229;-88
2022/08/10 08:36:24;;;;;;;3.90;2.08;;;;;;;;;;4936299;29;20225;-91
2022/08/10 08:38:51;;;;;;;3.05;2.08;;;;;;;;;;4938558;29;20209;-88
2022/08/10 08:41:37;;;;;;;3.30;1.80;;;;;;;;;;4948116;29;20205;-89
2022/08/10 08:44:23;;;;;;;2.28;1.50;;;;;;;;;;4939037;29;20209;-88
2022/08/10 08:47:06;;;;;;;2.53;1.90;;;;;;;;;;4937182;29;20292;-88
2022/08/10 08:49:48;;;;;;;2.40;1.50;;;;;;;;;;4938481;29;20216;-86
2022/08/10 08:52:28;;;;;;;1.65;1.55;;;;;;;;;;4938640;29;20233;-88
2022/08/10 08:55:14;;;;;;;1.60;1.50;;;;;;;;;;4932689;29;20289;-87
2022/08/10 08:57:44;;;;;;;2.00;1.80;;;;;;;;;;4935434;29;20273;-86
2022/08/10 09:00:16;;;;;;;1.85;1.60;;;;;;;;;;4937918;29;20205;-88
2022/08/10 09:03:10;;;;;;;1.90;1.70;;;;;;;;;;4938155;29;20296;-88
2022/08/10 09:05:45;;;;;;;1.77;1.67;;;;;;;;;;4894105;29;20221;-89
2022/08/10 09:08:36;;;;;;;2.20;1.60;;;;;;;;;;4937697;29;20212;-89
2022/08/10 09:11:30;;;;;;;;;;;;;;;;;;;;;
2022/08/10 09:14:33;;;;;;;;;;;;;;;;;;;;;
2022/08/10 09:17:11;;;;;;;2.10;1.90;;;;;;;;;;4942923;29;20228;-87
2022/08/10 09:19:48;;;;;;;2.22;1.85;;;;;;;;;;4939058;29;20293;-87
2022/08/10 09:22:24;;;;;;;2.08;1.65;;;;;;;;;;4937920;29;20206;-87
2022/08/10 09:24:59;;;;;;;2.00;1.90;;;;;;;;;;4938941;29;20219;-87
2022/08/10 09:27:49;;;;;;;1.70;1.60;;;;;;;;;;4940823;29;20225;-87
2022/08/10 09:30:25;;;;;;;2.08;1.58;;;;;;;;;;4939630;29;20242;-88
2022/08/10 09:36:33;;;;;;;2.60;1.80;;;;;;;;;;4932326;29;20225;-91
2022/08/10 09:39:06;;;;;;;2.28;1.70;;;;;;;;;;4935183;29;20504;-86
2022/08/10 09:41:39;;;;;;;2.17;1.60;;;;;;;;;;4936216;29;20735;-86
2022/08/10 09:44:23;;;;;;;2.30;1.70;;;;;;;;;;4935796;29;20229;-88
2022/08/10 09:46:58;;;;;;;2.05;1.50;;;;;;;;;;4930803;29;20225;-86
2022/08/10 09:49:32;;;;;;;2.00;1.80;;;;;;;;;;4933321;29;20207;-88
2022/08/10 09:52:03;;;;;;;1.70;1.60;;;;;;;;;;4941194;29;20637;-88
2022/08/10 09:54:36;;;;;;;1.92;1.80;;;;;;;;;;4938488;29;20233;-87
2022/08/10 09:57:12;;;;;;;2.75;1.75;;;;;;;;;;4937815;29;20649;-88
2022/08/10 09:59:43;;;;;;;1.83;1.70;;;;;;;;;;4937276;29;20295;-87
2022/08/10 10:02:23;;;;;;;1.50;1.40;;;;;;;;;;4934299;29;20292;-88
2022/08/10 10:04:53;;;;;;;4.35;2.53;;;;;;;;;;4936568;29;20209;-89
2022/08/10 10:07:26;;;;;;;4.40;2.03;;;;;;;;;;4931813;29;20323;-91
2022/08/10 10:10:30;;;;;;;3.80;1.70;;;;;;;;;;4933731;29;20197;-92
2022/08/10 10:13:08;;;;;;;2.55;1.73;;;;;;;;;;4923767;29;20639;-87
2022/08/10 10:15:41;;;;;;;2.00;1.60;;;;;;;;;;4929691;29;20241;-88
2022/08/10 10:21:31;;;;;;;6.13;1.95;;;;;;;;;;4875749;29;20328;-90
2022/08/10 10:24:25;;;;;;;1.73;1.50;;;;;;;;;;4854244;29;20218;-90
2022/08/10 10:26:57;;;;;;;2.28;1.70;;;;;;;;;;4876683;29;20231;-88
2022/08/10 10:29:36;;;;;;;1.83;1.60;;;;;;;;;;4876790;29;20271;-87
2022/08/10 10:32:12;;;;;;;3.58;1.70;;;;;;;;;;4879890;29;20241;-87
2022/08/10 10:34:48;;;;;;;2.92;1.83;;;;;;;;;;4876614;29;20294;-89
2022/08/10 10:40:13;;;;;;;2.35;1.67;;;;;;;;;;4972894;29;20201;-88
2022/08/10 10:43:13;;;;;;;2.30;1.67;;;;;;;;;;4972388;28;20188;-88
2022/08/10 10:45:57;;;;;;;1.95;1.75;;;;;;;;;;4869099;29;20231;-89
2022/08/10 10:48:29;;;;;;;2.83;1.80;;;;;;;;;;4875707;29;20285;-89
2022/08/10 10:51:24;;;;;;;1.95;1.60;;;;;;;;;;4951207;29;20236;-89
2022/08/10 10:54:01;;;;;;;1.70;1.60;;;;;;;;;;4952843;29;20248;-88
2022/08/10 11:17:36;;;;;;;2.20;1.48;;;;;;;;;;4974137;23;20273;-88
2022/08/10 11:20:19;;;;;;;2.45;1.42;;;;;;;;;;4961205;28;20244;-89
2022/08/10 11:25:44;;;;;;;2.85;1.60;;;;;;;;;;4955577;28;20213;-88
2022/08/10 11:28:15;;;;;;;2.15;1.50;;;;;;;;;;4972442;28;20204;-87
2022/08/10 11:31:18;;;;;;;1.60;1.50;;;;;;;;;;4973355;28;20200;-89
2022/08/10 11:33:56;;;;;;;1.55;1.45;;;;;;;;;;4971855;28;20220;-88
2022/08/10 11:36:48;;;;;;;1.98;1.60;;;;;;;;;;4969527;28;20231;-87
2022/08/10 11:45:45;;;;;;;2.42;1.48;;;;;;;;;;4800150;29;20261;-89
2022/08/10 11:51:46;;;;;;;1.52;1.42;;;;;;;;;;4871194;29;20297;-87
2022/08/10 12:10:50;;;;;;;;;;;;;;;;;;;;;
2022/08/10 12:28:53;;;;;;;3.60;1.50;;;;;;;;;;4891776;29;20214;-89
2022/08/10 12:49:28;;;;;;;1.80;1.70;;;;;;;;;;4902553;28;20264;-93
2022/08/10 12:54:43;;;;;;;3.28;2.00;;;;;;;;;;4953471;29;20205;-92
2022/08/10 12:57:13;;;;;;;2.45;1.75;;;;;;;;;;4956873;29;20224;-92
2022/08/10 13:00:14;;;;;;;1.77;1.67;;;;;;;;;;4957484;29;20300;-95
2022/08/10 13:42:31;;;;;;;1.63;1.50;;;;;;;;;;4972152;28;20199;-92
2022/08/10 13:48:06;;;;;;;2.53;1.52;;;;;;;;;;4958159;28;20241;-90
2022/08/10 13:50:35;;;;;;;1.52;1.42;;;;;;;;;;4957607;29;20220;-91
2022/08/10 14:03:52;;;;;;;2.90;1.63;;;;;;;;;;4970603;28;20227;-92
2022/08/10 14:09:00;;;;;;;2.63;1.60;;;;;;;;;;4979676;28;20216;-94
2022/08/10 14:11:39;;;;;;;1.67;1.20;;;;;;;;;;4993067;28;20267;-94
2022/08/10 14:17:25;;;;;;;1.63;1.45;;;;;;;;;;4970970;29;20232;-95
2022/08/10 14:23:09;;;;;;;1.70;1.60;;;;;;;;;;4881233;29;20215;-94
2022/08/10 14:25:52;;;;;;;1.40;1.30;;;;;;;;;;4953288;28;20209;-94
2022/08/10 14:28:30;;;;;;;1.95;1.60;;;;;;;;;;4954993;29;20212;-93
2022/08/10 14:31:15;;;;;;;1.58;1.48;;;;;;;;;;4966938;28;20208;-93
2022/08/10 14:34:08;;;;;;;;;;;;;;;;;;;;;
2022/08/10 14:47:09;;;;;;;2.15;1.50;;;;;;;;;;4942094;28;20229;-89
2022/08/10 14:49:46;;;;;;;1.92;1.33;;;;;;;;;;4936128;29;20663;-91
2022/08/10 14:52:16;;;;;;;1.63;1.50;;;;;;;;;;4939268;29;20219;-91
2022/08/10 15:00:29;;;;;;;1.50;1.40;;;;;;;;;;4946869;28;20240;-90
2022/08/10 15:03:04;;;;;;;1.92;1.50;;;;;;;;;;4943006;29;20574;-90
2022/08/10 15:05:31;;;;;;;1.70;1.60;;;;;;;;;;4950880;28;20255;-90
2022/08/10 15:08:07;;;;;;;2.30;1.50;;;;;;;;;;4954734;28;20255;-89
2022/08/10 15:13:57;;;;;;;3.05;1.50;;;;;;;;;;4957658;28;20311;-91
2022/08/10 15:21:51;;;;;;;1.70;1.50;;;;;;;;;;5835615;23;20307;-90
2022/08/10 15:30:10;;;;;;;1.40;1.30;;;;;;;;;;4945590;28;20206;-92
2022/08/10 15:38:35;;;;;;;1.63;1.52;;;;;;;;;;4946055;28;20287;-92
2022/08/10 15:53:30;;;;;;;2.45;1.38;;;;;;;;;;4943423;29;20240;-94
2022/08/10 15:56:27;;;;;;;2.40;1.58;;;;;;;;;;4931685;29;20340;-93
2022/08/10 16:05:02;;;;;;;1.80;1.65;;;;;;;;;;4924253;29;20217;-94
2022/08/10 16:10:29;;;;;;;;;;;;;;;;;;;;;
2022/08/10 16:13:20;;;;;;;2.63;1.60;;;;;;;;;;4944618;29;20217;-94
2022/08/10 16:16:13;;;;;;;2.55;1.60;;;;;;;;;;4937280;29;20209;-92
